createdAt,value
2023-05-19T00:02:33.887Z,99.90
2023-05-19T00:05:46.264Z,99.90
2023-05-19T00:08:50.210Z,99.90
2023-05-19T00:11:52.439Z,99.90
2023-05-19T00:14:54.855Z,99.90
2023-05-19T00:17:56.953Z,99.90
2023-05-19T00:20:59.187Z,99.90
2023-05-19T00:24:01.422Z,99.90
2023-05-19T00:27:03.644Z,99.90
2023-05-19T00:30:06.434Z,99.90
2023-05-19T00:33:09.360Z,99.90
2023-05-19T00:36:11.547Z,99.90
2023-05-19T00:39:13.653Z,99.90
2023-05-19T00:42:16.261Z,99.90
2023-05-19T00:45:18.466Z,99.90
2023-05-19T00:48:21.139Z,99.90
2023-05-19T00:51:26.217Z,99.90
2023-05-19T00:54:32.377Z,99.90
2023-05-19T00:57:34.543Z,99.90
2023-05-19T01:00:37.236Z,99.90
2023-05-19T01:03:40.947Z,99.90
2023-05-19T01:06:43.880Z,99.90
2023-05-19T01:09:47.453Z,99.90
2023-05-19T01:12:49.586Z,99.90
2023-05-19T01:16:06.796Z,99.90
2023-05-19T01:19:56.766Z,99.90
2023-05-19T01:23:05.225Z,99.90
2023-05-19T01:26:19.519Z,99.90
2023-05-19T01:29:39.690Z,99.90
2023-05-19T01:32:42.694Z,99.90
2023-05-19T01:35:46.656Z,99.90
2023-05-19T01:38:51.761Z,99.90
2023-05-19T01:41:55.136Z,99.90
2023-05-19T01:44:57.614Z,99.90
2023-05-19T01:48:02.746Z,99.90
2023-05-19T01:51:05.249Z,99.90
2023-05-19T01:54:07.317Z,99.90
2023-05-19T01:57:29.824Z,99.90
2023-05-19T02:00:40.581Z,99.90
2023-05-19T02:03:54.670Z,99.90
2023-05-19T02:07:10.010Z,99.90
2023-05-19T02:10:19.271Z,99.90
2023-05-19T02:13:27.598Z,99.90
2023-05-19T02:16:30.111Z,99.90
2023-05-19T02:19:34.518Z,99.90
2023-05-19T02:22:37.024Z,99.90
2023-05-19T02:25:39.130Z,99.90
2023-05-19T02:28:41.223Z,99.90
2023-05-19T02:31:43.461Z,99.90
2023-05-19T02:34:45.687Z,99.90
2023-05-19T02:37:47.777Z,99.90
2023-05-19T02:40:52.816Z,99.90
2023-05-19T02:43:54.872Z,99.90
2023-05-19T02:46:56.928Z,99.90
2023-05-19T02:49:59.041Z,99.90
2023-05-19T02:53:01.234Z,99.90
2023-05-19T02:56:03.616Z,99.90
2023-05-19T02:59:06.255Z,99.90
2023-05-19T03:02:08.541Z,99.90
2023-05-19T03:05:10.830Z,99.90
2023-05-19T03:08:13.051Z,99.90
2023-05-19T03:11:15.601Z,99.90
2023-05-19T03:14:18.798Z,99.90
2023-05-19T03:17:21.228Z,99.90
2023-05-19T03:20:24.635Z,99.90
2023-05-19T03:23:27.354Z,99.90
2023-05-19T03:26:29.613Z,99.90
2023-05-19T03:29:31.886Z,99.90
2023-05-19T03:32:37.651Z,99.90
2023-05-19T03:35:39.816Z,99.90
2023-05-19T03:38:41.873Z,99.90
2023-05-19T03:41:44.038Z,99.90
2023-05-19T03:44:46.330Z,99.90
2023-05-19T03:47:48.672Z,99.90
2023-05-19T03:50:50.765Z,99.90
2023-05-19T03:53:53.322Z,99.90
2023-05-19T03:56:55.551Z,99.90
2023-05-19T03:59:57.622Z,99.90
2023-05-19T04:03:00.652Z,99.90
2023-05-19T04:06:03.170Z,99.90
2023-05-19T04:09:12.158Z,99.90
2023-05-19T04:12:14.243Z,99.90
2023-05-19T04:15:16.504Z,99.90
2023-05-19T04:18:18.575Z,99.90
2023-05-19T04:21:22.468Z,99.90
2023-05-19T04:24:24.766Z,99.90
2023-05-19T04:27:29.077Z,99.90
2023-05-19T04:30:31.420Z,99.90
2023-05-19T04:33:34.068Z,99.90
2023-05-19T04:36:36.763Z,99.90
2023-05-19T04:39:40.384Z,99.90
2023-05-19T04:42:42.929Z,99.90
2023-05-19T04:45:46.611Z,99.90
2023-05-19T04:48:48.711Z,99.90
2023-05-19T04:51:53.277Z,99.90
2023-05-19T04:54:57.222Z,99.90
2023-05-19T04:57:59.287Z,99.90
2023-05-19T05:01:01.410Z,99.90
2023-05-19T05:04:03.727Z,99.90
2023-05-19T05:07:06.286Z,99.90
2023-05-19T05:10:09.114Z,99.90
2023-05-19T05:13:11.931Z,99.90
2023-05-19T05:16:14.629Z,99.90
2023-05-19T05:19:17.429Z,99.90
2023-05-19T05:22:19.825Z,99.90
2023-05-19T05:25:22.215Z,99.90
2023-05-19T05:28:24.331Z,99.90
2023-05-19T05:31:26.566Z,99.90
2023-05-19T05:34:28.931Z,99.90
2023-05-19T05:37:31.216Z,99.90
2023-05-19T05:40:33.419Z,99.90
2023-05-19T05:43:35.496Z,99.90
2023-05-19T05:46:37.752Z,99.90
2023-05-19T05:49:40.453Z,99.90
2023-05-19T05:52:47.903Z,99.90
2023-05-19T05:55:51.167Z,99.90
2023-05-19T05:58:53.835Z,99.90
2023-05-19T06:01:55.907Z,99.90
2023-05-19T06:04:58.038Z,99.90
2023-05-19T06:08:00.199Z,99.90
2023-05-19T06:11:08.385Z,99.90
2023-05-19T06:14:10.588Z,99.90
2023-05-19T06:17:12.696Z,99.90
2023-05-19T06:20:15.216Z,99.90
2023-05-19T06:23:17.270Z,99.90
2023-05-19T06:26:19.363Z,99.90
2023-05-19T06:29:21.450Z,99.90
2023-05-19T06:32:23.598Z,99.90
2023-05-19T06:35:25.824Z,99.90
2023-05-19T06:38:27.895Z,99.90
2023-05-19T06:41:30.034Z,99.90
2023-05-19T06:44:32.084Z,99.90
2023-05-19T06:47:34.273Z,99.90
2023-05-19T06:50:36.412Z,99.90
2023-05-19T06:53:38.451Z,99.90
2023-05-19T06:56:40.537Z,99.90
2023-05-19T06:59:43.666Z,99.90
2023-05-19T07:02:45.967Z,99.90
2023-05-19T07:05:48.245Z,99.90
2023-05-19T07:08:50.383Z,99.90
2023-05-19T07:11:53.218Z,99.90
2023-05-19T07:14:55.383Z,99.90
2023-05-19T07:17:58.686Z,99.90
2023-05-19T07:21:00.929Z,99.90
2023-05-19T07:24:03.063Z,99.90
2023-05-19T07:27:05.788Z,99.90
2023-05-19T07:30:08.594Z,99.90
2023-05-19T07:33:10.957Z,99.90
2023-05-19T07:36:13.192Z,99.90
2023-05-19T07:39:15.422Z,99.90
2023-05-19T07:42:17.623Z,99.90
2023-05-19T07:45:19.820Z,99.50
2023-05-19T07:48:24.648Z,99.90
2023-05-19T07:51:26.829Z,99.90
2023-05-19T07:54:28.956Z,99.90
2023-05-19T07:57:32.462Z,99.90
2023-05-19T08:00:34.901Z,99.90
2023-05-19T08:03:37.389Z,99.90
2023-05-19T08:06:40.250Z,99.90
2023-05-19T08:09:42.409Z,99.90
2023-05-19T08:12:44.433Z,99.90
2023-05-19T08:15:46.643Z,99.60
2023-05-19T08:18:48.851Z,99.90
2023-05-19T08:21:50.966Z,99.90
2023-05-19T08:24:53.179Z,99.90
2023-05-19T08:27:55.218Z,99.90
2023-05-19T08:30:57.318Z,99.90
2023-05-19T08:33:59.504Z,99.90
2023-05-19T08:37:01.691Z,99.90
2023-05-19T08:40:05.683Z,99.90
2023-05-19T08:43:08.473Z,99.90
2023-05-19T08:46:13.928Z,99.90
2023-05-19T08:49:25.368Z,99.90
2023-05-19T08:52:27.746Z,99.90
2023-05-19T08:55:36.848Z,98.80
2023-05-19T08:58:41.395Z,98.00
2023-05-19T09:01:46.275Z,95.70
2023-05-19T09:04:48.776Z,97.60
2023-05-19T09:07:50.941Z,94.90
2023-05-19T09:10:53.104Z,92.40
2023-05-19T09:13:55.333Z,95.80
2023-05-19T09:16:57.573Z,90.70
2023-05-19T09:20:03.317Z,94.70
2023-05-19T09:23:06.271Z,96.30
2023-05-19T09:26:08.436Z,93.40
2023-05-19T09:29:14.570Z,97.60
2023-05-19T09:32:26.878Z,95.70
2023-05-19T09:35:29.406Z,94.60
2023-05-19T09:38:31.602Z,94.50
2023-05-19T09:41:33.737Z,92.60
2023-05-19T09:44:36.104Z,89.40
2023-05-19T09:47:42.195Z,92.70
2023-05-19T09:50:45.738Z,92.40
2023-05-19T09:53:48.469Z,94.10
2023-05-19T09:57:01.017Z,92.10
2023-05-19T10:00:12.024Z,86.80
2023-05-19T10:03:16.548Z,89.00
2023-05-19T10:06:19.157Z,77.40
2023-05-19T10:09:25.923Z,78.20
2023-05-19T10:12:28.327Z,76.00
2023-05-19T10:15:31.058Z,75.90
2023-05-19T10:18:35.239Z,70.90
2023-05-19T10:21:37.344Z,65.30
2023-05-19T10:24:39.421Z,64.70
2023-05-19T10:27:44.572Z,67.50
2023-05-19T10:30:50.973Z,65.80
2023-05-19T10:33:56.242Z,65.60
2023-05-19T10:37:31.969Z,66.60
2023-05-19T10:40:38.349Z,66.10
2023-05-19T10:44:05.221Z,73.10
2023-05-19T10:47:08.766Z,65.90
2023-05-19T10:50:11.362Z,70.50
2023-05-19T10:53:22.797Z,71.50
2023-05-19T10:56:30.004Z,72.20
2023-05-19T10:59:35.193Z,66.90
2023-05-19T11:02:44.257Z,67.60
2023-05-19T11:05:46.579Z,76.80
2023-05-19T11:08:53.998Z,68.90
2023-05-19T11:11:57.149Z,73.70
2023-05-19T11:14:59.788Z,70.00
2023-05-19T11:18:02.636Z,67.40
2023-05-19T11:21:04.960Z,66.00
2023-05-19T11:24:09.462Z,65.10
2023-05-19T11:27:28.403Z,71.50
2023-05-19T11:30:30.757Z,72.70
2023-05-19T11:33:33.121Z,82.40
2023-05-19T11:36:36.998Z,91.20
2023-05-19T11:39:40.407Z,88.80
2023-05-19T11:42:42.556Z,89.30
2023-05-19T11:45:45.837Z,88.00
2023-05-19T11:48:48.547Z,84.40
2023-05-19T11:51:50.752Z,81.30
2023-05-19T11:54:52.969Z,81.70
2023-05-19T11:58:05.761Z,86.20
2023-05-19T12:01:08.251Z,82.10
2023-05-19T12:04:10.670Z,81.10
2023-05-19T12:07:13.838Z,75.70
2023-05-19T12:10:16.656Z,74.80
2023-05-19T12:13:20.041Z,74.70
2023-05-19T12:16:22.951Z,73.50
2023-05-19T12:19:26.145Z,67.00
2023-05-19T12:22:28.381Z,68.00
2023-05-19T12:25:32.101Z,63.50
2023-05-19T12:28:34.679Z,62.80
2023-05-19T12:31:38.125Z,63.90
2023-05-19T12:34:40.362Z,60.80
2023-05-19T12:37:42.839Z,59.30
2023-05-19T12:40:45.061Z,61.30
2023-05-19T12:43:47.206Z,61.20
2023-05-19T12:46:52.448Z,63.40
2023-05-19T12:50:07.794Z,64.70
2023-05-19T12:53:12.652Z,66.30
2023-05-19T12:56:16.520Z,75.10
2023-05-19T12:59:37.361Z,68.90
2023-05-19T13:03:06.153Z,66.00
2023-05-19T13:06:09.547Z,69.70
2023-05-19T13:09:11.718Z,71.20
2023-05-19T13:12:13.814Z,72.50
2023-05-19T13:15:16.063Z,71.30
2023-05-19T13:18:18.386Z,75.80
2023-05-19T13:21:20.456Z,79.80
2023-05-19T13:24:22.637Z,80.10
2023-05-19T13:27:25.300Z,79.20
2023-05-19T13:30:28.372Z,80.50
2023-05-19T13:33:30.520Z,79.80
2023-05-19T13:36:36.611Z,79.00
2023-05-19T13:39:38.811Z,85.60
2023-05-19T13:42:41.226Z,91.60
2023-05-19T13:45:44.554Z,94.10
2023-05-19T13:48:46.752Z,95.20
2023-05-19T13:51:48.954Z,95.90
2023-05-19T13:54:51.211Z,93.10
2023-05-19T13:57:53.672Z,91.70
2023-05-19T14:00:56.944Z,87.90
2023-05-19T14:03:59.739Z,80.40
2023-05-19T14:07:03.072Z,83.50
2023-05-19T14:10:06.948Z,76.10
2023-05-19T14:16:17.066Z,78.70
2023-05-19T14:19:19.394Z,78.10
2023-05-19T14:22:21.526Z,80.80
2023-05-19T14:25:23.537Z,74.90
2023-05-19T14:28:25.718Z,73.70
2023-05-19T14:31:27.950Z,68.80
2023-05-19T14:34:30.088Z,69.80
2023-05-19T14:37:32.483Z,69.80
2023-05-19T14:40:37.664Z,71.30
2023-05-19T14:43:42.171Z,73.80
2023-05-19T14:46:44.364Z,81.20
2023-05-19T14:49:46.473Z,86.30
2023-05-19T14:52:48.611Z,86.90
2023-05-19T14:55:50.737Z,90.50
2023-05-19T14:58:52.815Z,86.80
2023-05-19T15:01:54.880Z,88.60
2023-05-19T15:04:56.949Z,90.00
2023-05-19T15:07:58.995Z,80.00
2023-05-19T15:11:01.021Z,75.60
2023-05-19T15:14:03.349Z,77.60
2023-05-19T15:17:05.693Z,78.40
2023-05-19T15:20:08.225Z,82.90
2023-05-19T15:23:10.437Z,80.80
2023-05-19T15:26:13.305Z,80.60
2023-05-19T15:29:15.626Z,82.20
2023-05-19T15:32:17.769Z,82.60
2023-05-19T15:35:19.930Z,80.00
2023-05-19T15:38:21.980Z,80.90
2023-05-19T15:41:24.064Z,80.00
2023-05-19T15:44:28.817Z,73.30
2023-05-19T15:47:31.198Z,72.40
2023-05-19T15:50:33.520Z,78.90
2023-05-19T15:53:36.468Z,82.50
2023-05-19T15:56:38.557Z,87.80
2023-05-19T15:59:40.610Z,90.90
2023-05-19T16:02:42.937Z,84.80
2023-05-19T16:05:45.158Z,80.90
2023-05-19T16:08:47.229Z,82.40
2023-05-19T16:11:49.688Z,83.40
2023-05-19T16:14:51.747Z,85.70
2023-05-19T16:17:55.068Z,86.50
2023-05-19T16:20:57.322Z,83.40
2023-05-19T16:23:59.405Z,86.40
2023-05-19T16:27:01.563Z,86.20
2023-05-19T16:30:03.811Z,81.70
2023-05-19T16:33:06.112Z,82.80
2023-05-19T16:36:08.361Z,85.20
2023-05-19T16:39:10.842Z,87.40
2023-05-19T16:42:12.978Z,87.20
2023-05-19T16:45:17.526Z,90.70
2023-05-19T16:48:19.662Z,90.20
2023-05-19T16:51:22.039Z,92.40
2023-05-19T16:54:24.217Z,93.50
2023-05-19T16:57:26.525Z,95.10
2023-05-19T17:00:29.890Z,96.40
2023-05-19T17:03:32.210Z,98.20
2023-05-19T17:06:34.618Z,98.30
2023-05-19T17:09:36.697Z,99.90
2023-05-19T17:12:38.783Z,99.90
2023-05-19T17:15:43.056Z,99.90
2023-05-19T17:18:48.029Z,99.90
2023-05-19T17:21:50.344Z,99.90
2023-05-19T17:24:52.447Z,99.90
2023-05-19T17:27:55.800Z,99.90
2023-05-19T17:30:57.915Z,99.90
2023-05-19T17:34:00.054Z,99.90
2023-05-19T17:37:02.232Z,99.90
2023-05-19T17:40:04.681Z,99.90
2023-05-19T17:43:08.273Z,99.90
2023-05-19T17:46:10.532Z,99.90
2023-05-19T17:49:13.719Z,99.90
2023-05-19T17:52:16.554Z,99.90
2023-05-19T17:55:19.120Z,99.90
2023-05-19T17:58:21.463Z,99.90
2023-05-19T18:01:25.806Z,99.90
2023-05-19T18:04:28.318Z,99.90
2023-05-19T18:07:32.768Z,99.90
2023-05-19T18:10:37.434Z,99.90
2023-05-19T18:13:39.506Z,99.90
2023-05-19T18:16:41.879Z,99.90
2023-05-19T18:19:44.121Z,99.90
2023-05-19T18:22:47.087Z,99.90
2023-05-19T18:25:50.731Z,99.90
2023-05-19T18:28:52.815Z,99.90
2023-05-19T18:31:54.965Z,99.90
2023-05-19T18:34:57.124Z,99.90
2023-05-19T18:37:59.220Z,99.90
2023-05-19T18:41:01.332Z,99.90
2023-05-19T18:44:03.706Z,99.90
2023-05-19T18:47:06.104Z,99.90
2023-05-19T18:50:09.385Z,99.90
2023-05-19T18:53:12.150Z,99.90
2023-05-19T18:56:15.868Z,99.90
2023-05-19T18:59:18.030Z,99.90
2023-05-19T19:02:20.030Z,99.90
2023-05-19T19:05:22.103Z,99.90
2023-05-19T19:08:24.183Z,99.90
2023-05-19T19:11:26.480Z,99.90
2023-05-19T19:14:28.565Z,99.90
2023-05-19T19:17:30.801Z,99.90
2023-05-19T19:20:33.263Z,99.90
2023-05-19T19:23:35.547Z,99.90
2023-05-19T19:26:38.943Z,99.90
2023-05-19T19:29:41.661Z,99.90
2023-05-19T19:32:43.861Z,99.90
2023-05-19T19:35:49.120Z,99.90
2023-05-19T19:38:51.222Z,99.90
2023-05-19T19:41:54.840Z,99.90
2023-05-19T19:44:57.288Z,99.90
2023-05-19T19:47:59.463Z,99.90
2023-05-19T19:51:01.607Z,99.90
2023-05-19T19:54:22.243Z,99.90
2023-05-19T19:57:29.224Z,99.90
2023-05-19T20:00:31.554Z,99.90
2023-05-19T20:03:34.954Z,99.90
2023-05-19T20:06:38.494Z,99.90
2023-05-19T20:09:40.571Z,99.90
2023-05-19T20:12:43.553Z,99.90
2023-05-19T20:15:46.978Z,99.90
2023-05-19T20:18:49.342Z,99.90
2023-05-19T20:21:51.580Z,99.90
2023-05-19T20:24:53.693Z,99.90
2023-05-19T20:27:55.830Z,99.90
2023-05-19T20:30:57.949Z,99.90
2023-05-19T20:34:01.483Z,99.90
2023-05-19T20:37:04.164Z,99.90
2023-05-19T20:40:08.524Z,99.90
2023-05-19T20:43:10.702Z,99.90
2023-05-19T20:46:12.913Z,99.90
2023-05-19T20:49:15.046Z,99.90
2023-05-19T20:52:17.630Z,99.90
2023-05-19T20:55:19.774Z,99.90
2023-05-19T20:58:21.855Z,99.90
2023-05-19T21:01:25.501Z,99.90
2023-05-19T21:04:27.729Z,99.90
2023-05-19T21:07:29.771Z,99.90
2023-05-19T21:10:32.173Z,99.90
2023-05-19T21:13:39.084Z,99.90
2023-05-19T21:16:42.519Z,99.90
2023-05-19T21:19:44.636Z,99.90
2023-05-19T21:22:46.779Z,99.90
2023-05-19T21:25:50.611Z,99.90
2023-05-19T21:28:52.878Z,99.90
2023-05-19T21:31:56.311Z,99.90
2023-05-19T21:34:58.439Z,99.90
2023-05-19T21:38:08.870Z,99.90
2023-05-19T21:41:14.721Z,99.90
2023-05-19T21:44:17.193Z,99.90
2023-05-19T21:47:19.347Z,99.90
2023-05-19T21:50:21.461Z,99.90
2023-05-19T21:53:24.290Z,99.90
2023-05-19T21:56:26.723Z,99.90
2023-05-19T21:59:29.012Z,99.90
2023-05-19T22:02:31.293Z,99.90
2023-05-19T22:05:35.443Z,99.90
2023-05-19T22:08:37.686Z,99.90
2023-05-19T22:11:40.195Z,99.90
2023-05-19T22:14:42.324Z,99.90
2023-05-19T22:17:44.519Z,99.90
2023-05-19T22:20:46.736Z,99.90
2023-05-19T22:23:48.879Z,99.90
2023-05-19T22:26:50.944Z,99.90
2023-05-19T22:29:53.050Z,99.90
2023-05-19T22:32:55.356Z,99.90
2023-05-19T22:35:57.451Z,99.90
2023-05-19T22:38:59.587Z,99.90
2023-05-19T22:42:02.647Z,99.90
2023-05-19T22:45:05.588Z,99.90
2023-05-19T22:48:07.705Z,99.90
2023-05-19T22:51:09.987Z,99.90
2023-05-19T22:54:12.141Z,99.90
2023-05-19T22:57:14.261Z,99.90
2023-05-19T23:00:18.832Z,99.90
2023-05-19T23:03:21.187Z,99.90
2023-05-19T23:06:23.283Z,99.90
2023-05-19T23:09:27.255Z,99.90
2023-05-19T23:12:29.393Z,99.90
2023-05-19T23:15:31.689Z,99.90
2023-05-19T23:18:33.937Z,99.90
2023-05-19T23:21:36.155Z,99.90
2023-05-19T23:24:38.331Z,99.90
2023-05-19T23:27:41.089Z,99.90
2023-05-19T23:30:43.230Z,99.90
2023-05-19T23:33:45.627Z,99.90
2023-05-19T23:36:48.011Z,99.90
2023-05-19T23:39:50.197Z,99.90
2023-05-19T23:42:52.653Z,99.90
2023-05-19T23:45:55.020Z,99.90
2023-05-19T23:48:57.082Z,99.90
2023-05-19T23:51:59.279Z,99.90
2023-05-19T23:55:01.366Z,99.90
2023-05-19T23:58:03.603Z,99.90
